Time;durP1;ratioP1;P1;durP2;ratioP2;P2;SDS_P1;SDS_P2;PMS_P1;PMS_P2;Temp;Humidity;BMP_temperature;BMP_pressure;BME280_temperature;BME280_humidity;BME280_pressure;Samples;Min_cycle;Max_cycle;Signal;HPM_P1;HPM_P2
2021/04/05 00:01:51;;;;;;;10.65;4.53;;;3.10;66.60;;;;;;4831736;29;20424;-69
2021/04/05 00:04:18;;;;;;;13.55;4.57;;;3.20;66.40;;;;;;4818697;29;20046;-69
2021/04/05 00:06:44;;;;;;;13.02;4.70;;;3.20;65.80;;;;;;4841861;29;20042;-69
2021/04/05 00:09:13;;;;;;;12.75;4.65;;;3.30;66.10;;;;;;4837168;29;20073;-69
2021/04/05 00:11:40;;;;;;;10.98;5.00;;;3.30;66.30;;;;;;4834264;29;20057;-69
2021/04/05 00:14:07;;;;;;;10.68;4.18;;;3.20;66.70;;;;;;4836690;29;20373;-69
2021/04/05 00:16:33;;;;;;;10.88;4.65;;;3.10;67.20;;;;;;4836237;29;20065;-71
2021/04/05 00:19:00;;;;;;;14.43;4.40;;;3.10;67.30;;;;;;4834171;29;20050;-69
2021/04/05 00:21:28;;;;;;;12.93;4.75;;;3.10;67.30;;;;;;4837065;29;20038;-69
2021/04/05 00:23:54;;;;;;;9.70;4.38;;;3.10;67.50;;;;;;4833365;29;20490;-69
2021/04/05 00:26:22;;;;;;;11.07;4.35;;;3.20;67.50;;;;;;4835092;29;20039;-69
2021/04/05 00:28:49;;;;;;;13.30;4.35;;;3.10;67.40;;;;;;4831980;29;20050;-69
2021/04/05 00:31:17;;;;;;;11.00;4.32;;;3.10;67.70;;;;;;4825682;29;20064;-69
2021/04/05 00:33:44;;;;;;;9.77;4.00;;;3.10;67.90;;;;;;4838540;29;20592;-69
2021/04/05 00:36:11;;;;;;;11.65;5.15;;;3.10;68.30;;;;;;4830812;29;20061;-69
2021/04/05 00:38:37;;;;;;;9.38;4.45;;;3.10;67.80;;;;;;4812411;29;20043;-69
2021/04/05 00:41:25;;;;;;;10.38;4.43;;;3.10;68.30;;;;;;4831620;29;20049;-69
2021/04/05 00:43:52;;;;;;;11.13;4.65;;;3.20;68.20;;;;;;4839254;29;20046;-69
2021/04/05 00:46:24;;;;;;;13.27;4.25;;;3.20;67.70;;;;;;4833606;29;20045;-69
2021/04/05 00:48:52;;;;;;;9.07;4.18;;;3.00;68.10;;;;;;4809488;29;20406;-69
2021/04/05 00:51:23;;;;;;;16.23;6.93;;;3.00;68.00;;;;;;4834514;29;20037;-69
2021/04/05 00:53:50;;;;;;;18.88;8.82;;;3.10;68.70;;;;;;4835165;29;20510;-69
2021/04/05 00:56:25;;;;;;;12.90;6.18;;;3.00;68.80;;;;;;4835682;29;20061;-69
2021/04/05 00:58:52;;;;;;;13.02;5.05;;;2.90;69.30;;;;;;4823020;29;20057;-69
2021/04/05 01:01:26;;;;;;;14.15;5.07;;;3.00;69.40;;;;;;4832189;29;20053;-69
2021/04/05 01:03:54;;;;;;;12.32;4.95;;;2.90;69.70;;;;;;4829998;29;20050;-69
2021/04/05 01:06:29;;;;;;;11.65;4.90;;;2.80;69.80;;;;;;4830083;29;20363;-69
2021/04/05 01:08:56;;;;;;;11.63;4.82;;;2.90;70.00;;;;;;4829945;29;20062;-69
2021/04/05 01:11:27;;;;;;;10.82;4.47;;;2.90;70.10;;;;;;4830416;29;20050;-69
2021/04/05 01:13:54;;;;;;;12.85;5.32;;;2.80;70.30;;;;;;4819915;29;20053;-69
2021/04/05 01:16:24;;;;;;;12.18;4.90;;;2.90;69.90;;;;;;4838999;29;20045;-69
2021/04/05 01:18:51;;;;;;;11.50;4.68;;;2.90;69.90;;;;;;4827948;29;20053;-69
2021/04/05 01:21:17;;;;;;;16.10;5.45;;;2.90;69.90;;;;;;4827333;29;20039;-69
2021/04/05 01:23:44;;;;;;;14.10;5.68;;;2.80;70.60;;;;;;4839681;29;20046;-69
2021/04/05 01:26:10;;;;;;;12.68;4.90;;;2.80;70.10;;;;;;4828163;29;20123;-69
2021/04/05 01:28:37;;;;;;;14.88;5.85;;;2.80;69.50;;;;;;4837566;29;20064;-69
2021/04/05 01:31:04;;;;;;;12.63;4.50;;;2.90;69.20;;;;;;4829890;29;20054;-68
2021/04/05 01:33:34;;;;;;;16.95;6.03;;;2.90;69.10;;;;;;4831706;29;20044;-69
2021/04/05 01:36:07;;;;;;;14.65;5.75;;;2.90;69.50;;;;;;4835186;29;20406;-69
2021/04/05 01:38:52;;;;;;;15.57;5.45;;;2.80;69.80;;;;;;4838325;29;20042;-69
2021/04/05 01:41:22;;;;;;;12.13;4.78;;;2.90;70.10;;;;;;4822427;29;20053;-69
2021/04/05 01:43:49;;;;;;;13.27;4.97;;;2.80;69.50;;;;;;4824493;29;20049;-69
2021/04/05 01:46:18;;;;;;;9.68;3.75;;;2.80;69.30;;;;;;4836850;29;20546;-69
2021/04/05 01:48:45;;;;;;;13.55;4.75;;;2.70;69.30;;;;;;4836535;29;20042;-69
2021/04/05 01:51:22;;;;;;;13.25;5.15;;;2.70;69.40;;;;;;4831087;29;20081;-69
2021/04/05 01:53:50;;;;;;;10.35;4.63;;;2.70;69.10;;;;;;4837536;29;20041;-69
2021/04/05 01:56:19;;;;;;;9.18;4.03;;;2.70;69.90;;;;;;4831142;29;20074;-70
2021/04/05 01:58:55;;;;;;;9.52;4.03;;;2.70;69.40;;;;;;4834045;29;20038;-69
2021/04/05 02:01:30;;;;;;;7.15;3.15;;;2.70;69.00;;;;;;4835947;29;20465;-69
2021/04/05 02:04:01;;;;;;;9.02;3.55;;;2.70;68.90;;;;;;4830561;29;20074;-69
2021/04/05 02:06:30;;;;;;;7.47;3.40;;;2.70;69.00;;;;;;4830703;29;20557;-69
2021/04/05 02:08:56;;;;;;;7.93;3.35;;;2.60;69.00;;;;;;4821204;29;20057;-69
2021/04/05 02:11:29;;;;;;;6.50;3.63;;;2.60;69.20;;;;;;4825071;29;20054;-69
2021/04/05 02:13:58;;;;;;;7.75;3.15;;;2.60;69.40;;;;;;4831606;29;20736;-69
2021/04/05 02:16:26;;;;;;;8.63;3.30;;;2.60;69.50;;;;;;4830545;29;20062;-69
2021/04/05 02:18:56;;;;;;;9.23;3.10;;;2.70;69.10;;;;;;4838902;29;20550;-69
2021/04/05 02:21:24;;;;;;;9.10;3.00;;;2.80;68.90;;;;;;4850316;29;20045;-69
2021/04/05 02:23:52;;;;;;;7.70;3.33;;;2.90;68.70;;;;;;4834880;29;20053;-69
2021/04/05 02:26:23;;;;;;;8.10;3.10;;;2.80;68.80;;;;;;4822613;29;20038;-69
2021/04/05 02:28:57;;;;;;;7.88;3.33;;;2.90;69.10;;;;;;4827616;29;20081;-69
2021/04/05 02:31:24;;;;;;;8.05;2.72;;;2.90;68.90;;;;;;4830275;29;20050;-69
2021/04/05 02:33:53;;;;;;;8.52;3.03;;;3.00;68.40;;;;;;4834376;29;20080;-69
2021/04/05 02:36:23;;;;;;;7.72;3.28;;;3.10;68.30;;;;;;4836856;29;20046;-69
2021/04/05 02:38:55;;;;;;;8.95;4.30;;;3.20;67.40;;;;;;4832246;29;20050;-69
2021/04/05 02:41:24;;;;;;;9.50;3.50;;;3.10;67.40;;;;;;4838326;29;20076;-69
2021/04/05 02:43:52;;;;;;;6.65;2.80;;;3.10;68.10;;;;;;4840029;29;20464;-69
2021/04/05 02:46:25;;;;;;;6.57;3.05;;;3.00;67.70;;;;;;4837102;29;20050;-69
2021/04/05 02:48:53;;;;;;;9.90;3.10;;;3.10;67.20;;;;;;4822210;29;20732;-69
2021/04/05 02:51:20;;;;;;;9.55;3.30;;;3.10;67.50;;;;;;4832972;29;20065;-69
2021/04/05 02:53:50;;;;;;;6.88;2.92;;;3.00;67.90;;;;;;4834708;29;20058;-69
2021/04/05 02:56:18;;;;;;;8.73;3.10;;;2.90;68.70;;;;;;4840740;29;20046;-69
2021/04/05 02:58:47;;;;;;;8.23;3.08;;;2.90;69.00;;;;;;4834610;29;20046;-69
2021/04/05 03:01:14;;;;;;;7.57;2.83;;;2.80;69.50;;;;;;4839480;29;20075;-69
2021/04/05 03:03:43;;;;;;;10.40;3.30;;;2.90;69.50;;;;;;4837635;29;20048;-69
2021/04/05 03:06:20;;;;;;;8.25;3.22;;;2.90;69.50;;;;;;4822449;29;20584;-70
2021/04/05 03:08:48;;;;;;;9.02;3.28;;;2.90;69.60;;;;;;4822783;29;20065;-69
2021/04/05 03:11:16;;;;;;;8.07;2.95;;;2.80;69.90;;;;;;4835440;29;20078;-69
2021/04/05 03:13:43;;;;;;;7.63;3.05;;;2.80;69.80;;;;;;4828487;29;20494;-69
2021/04/05 03:16:14;;;;;;;9.45;3.63;;;2.60;70.20;;;;;;4833429;29;20082;-69
2021/04/05 03:18:42;;;;;;;8.18;2.78;;;2.60;70.20;;;;;;4830535;29;20134;-69
2021/04/05 03:21:12;;;;;;;7.25;3.00;;;2.70;70.10;;;;;;4832563;29;20283;-69
2021/04/05 03:23:40;;;;;;;6.63;2.83;;;2.50;70.30;;;;;;4833265;29;20050;-69
2021/04/05 03:26:07;;;;;;;7.72;2.85;;;2.50;70.90;;;;;;4827522;29;20436;-69
2021/04/05 03:28:34;;;;;;;8.38;3.47;;;2.40;71.50;;;;;;4837239;29;20124;-69
2021/04/05 03:31:07;;;;;;;9.23;3.13;;;2.50;71.30;;;;;;4810700;29;20525;-69
2021/04/05 03:33:45;;;;;;;9.10;3.08;;;2.40;71.20;;;;;;4829748;29;20130;-69
2021/04/05 03:36:20;;;;;;;7.47;2.60;;;2.50;70.80;;;;;;4830118;29;20077;-69
2021/04/05 03:38:46;;;;;;;8.98;2.83;;;2.40;71.00;;;;;;4835015;29;20387;-69
2021/04/05 03:41:39;;;;;;;6.50;2.42;;;2.30;71.40;;;;;;4816480;29;20388;-69
2021/04/05 03:44:25;;;;;;;8.25;2.47;;;2.20;71.60;;;;;;4835097;29;20475;-70
2021/04/05 03:46:56;;;;;;;9.73;3.20;;;2.20;72.10;;;;;;4827015;29;20049;-69
2021/04/05 03:49:39;;;;;;;10.55;3.28;;;2.20;72.80;;;;;;4830786;29;20382;-69
2021/04/05 03:52:31;;;;;;;8.65;3.05;;;2.20;71.80;;;;;;4821712;29;20150;-69
2021/04/05 03:55:06;;;;;;;11.00;3.83;;;2.20;72.70;;;;;;4833360;29;20058;-69
2021/04/05 03:57:37;;;;;;;9.10;2.90;;;2.30;72.60;;;;;;4838182;29;20137;-69
2021/04/05 04:00:09;;;;;;;10.57;3.35;;;2.10;73.00;;;;;;4831979;29;20057;-69
2021/04/05 04:02:44;;;;;;;8.02;3.92;;;2.10;73.60;;;;;;4835749;29;20046;-69
2021/04/05 04:05:35;;;;;;;13.05;5.32;;;2.20;73.60;;;;;;4834749;29;20148;-69
2021/04/05 04:08:15;;;;;;;15.93;6.80;;;2.10;74.10;;;;;;4832624;29;20093;-69
2021/04/05 04:10:46;;;;;;;17.65;6.05;;;2.10;74.50;;;;;;4826485;29;20057;-69
2021/04/05 04:13:16;;;;;;;8.73;4.72;;;2.00;74.60;;;;;;4834864;29;20054;-69
2021/04/05 04:15:47;;;;;;;10.18;4.50;;;2.00;74.40;;;;;;4825809;29;20046;-69
2021/04/05 04:18:16;;;;;;;11.60;3.88;;;1.90;74.50;;;;;;4833201;29;20403;-69
2021/04/05 04:20:43;;;;;;;10.82;4.13;;;2.10;74.00;;;;;;4823534;29;20083;-69
2021/04/05 04:23:10;;;;;;;12.50;4.38;;;2.10;73.60;;;;;;4830921;29;20042;-69
2021/04/05 04:25:37;;;;;;;13.05;4.70;;;2.10;73.40;;;;;;4821614;29;20095;-69
2021/04/05 04:28:05;;;;;;;10.02;4.28;;;2.00;73.40;;;;;;4822841;29;20144;-69
2021/04/05 04:30:33;;;;;;;12.73;3.72;;;2.10;73.10;;;;;;4831640;29;20110;-69
2021/04/05 04:33:05;;;;;;;10.77;4.30;;;2.00;72.70;;;;;;4821567;29;20062;-69
2021/04/05 04:35:34;;;;;;;9.25;4.22;;;2.10;72.30;;;;;;4849838;29;20603;-69
2021/04/05 04:38:02;;;;;;;10.60;4.30;;;2.10;72.40;;;;;;4832527;29;20049;-69
2021/04/05 04:40:31;;;;;;;11.20;4.55;;;2.00;72.50;;;;;;4837520;29;20771;-69
2021/04/05 04:42:59;;;;;;;15.75;4.60;;;2.10;72.40;;;;;;4826286;29;20041;-69
2021/04/05 04:45:26;;;;;;;13.52;5.47;;;2.10;72.50;;;;;;4823121;29;20088;-69
2021/04/05 04:47:55;;;;;;;44.42;12.68;;;2.10;72.40;;;;;;4833538;29;20046;-69
2021/04/05 04:50:24;;;;;;;33.78;12.23;;;2.10;72.00;;;;;;4828129;29;20054;-69
2021/04/05 04:52:50;;;;;;;28.23;9.75;;;2.10;72.40;;;;;;4827048;29;20066;-69
2021/04/05 04:55:18;;;;;;;14.25;5.72;;;2.20;73.20;;;;;;4821700;29;20049;-69
2021/04/05 04:57:44;;;;;;;20.27;8.45;;;2.30;72.90;;;;;;4810253;29;20404;-69
2021/04/05 05:00:11;;;;;;;25.92;8.88;;;2.40;72.00;;;;;;4833918;29;20459;-69
2021/04/05 05:02:41;;;;;;;18.15;6.82;;;2.40;71.70;;;;;;4833794;29;20046;-69
2021/04/05 05:05:13;;;;;;;18.67;7.57;;;2.40;71.80;;;;;;4812614;29;20050;-69
2021/04/05 05:07:41;;;;;;;39.25;12.55;;;2.60;71.30;;;;;;4834909;29;20658;-69
2021/04/05 05:10:10;;;;;;;72.95;19.63;;;2.60;71.60;;;;;;4837393;29;20149;-69
2021/04/05 05:12:42;;;;;;;116.63;28.42;;;2.60;71.50;;;;;;4837665;29;20069;-69
2021/04/05 05:15:12;;;;;;;53.63;14.88;;;2.60;71.20;;;;;;4823455;29;20435;-69
2021/04/05 05:17:47;;;;;;;23.88;7.75;;;2.70;71.10;;;;;;4829161;29;20042;-69
2021/04/05 05:20:16;;;;;;;13.70;5.00;;;2.80;71.00;;;;;;4825457;29;20042;-69
2021/04/05 05:22:58;;;;;;;9.68;4.15;;;2.90;70.90;;;;;;4820762;29;20502;-69
2021/04/05 05:25:25;;;;;;;14.32;4.68;;;3.00;71.20;;;;;;4833611;29;20395;-69
2021/04/05 05:28:03;;;;;;;70.10;16.73;;;3.10;71.30;;;;;;4827125;29;20188;-69
2021/04/05 05:30:30;;;;;;;44.65;11.82;;;3.20;71.80;;;;;;4837475;29;20042;-69
2021/04/05 05:33:02;;;;;;;33.08;9.55;;;3.20;72.30;;;;;;4827987;29;20103;-69
2021/04/05 05:35:29;;;;;;;16.38;6.30;;;3.30;72.60;;;;;;4825152;29;20061;-69
2021/04/05 05:38:04;;;;;;;14.50;4.47;;;3.40;72.90;;;;;;4815645;29;20507;-70
2021/04/05 05:40:34;;;;;;;11.30;4.32;;;3.40;73.30;;;;;;4823576;29;20046;-69
2021/04/05 05:43:42;;;;;;;13.15;4.00;;;3.50;72.90;;;;;;4806219;29;20054;-69
2021/04/05 05:46:12;;;;;;;11.18;4.32;;;3.50;73.50;;;;;;4815611;29;20611;-69
2021/04/05 05:48:57;;;;;;;11.07;3.88;;;3.50;74.00;;;;;;4836245;29;20382;-69
2021/04/05 05:51:40;;;;;;;10.10;3.67;;;3.60;73.80;;;;;;4838061;29;20711;-69
2021/04/05 05:54:46;;;;;;;11.18;4.10;;;3.70;73.90;;;;;;4820913;29;20054;-69
2021/04/05 05:57:34;;;;;;;10.73;3.45;;;3.80;74.20;;;;;;4803232;29;20058;-68
2021/04/05 06:00:59;;;;;;;8.50;3.20;;;3.90;74.80;;;;;;4837489;29;20056;-69
2021/04/05 06:04:06;;;;;;;8.48;3.55;;;4.00;75.20;;;;;;4799770;29;20053;-69
2021/04/05 06:07:00;;;;;;;8.20;2.72;;;4.10;75.40;;;;;;4787469;29;20438;-71
2021/04/05 06:09:48;;;;;;;8.93;3.58;;;4.30;74.70;;;;;;4798608;29;20074;-70
2021/04/05 06:12:19;;;;;;;7.60;3.65;;;4.40;74.60;;;;;;4788032;29;20523;-70
2021/04/05 06:15:16;;;;;;;8.10;3.45;;;4.50;73.90;;;;;;4803495;29;20070;-70
2021/04/05 06:17:59;;;;;;;11.07;3.25;;;4.60;73.50;;;;;;4801395;29;20054;-70
2021/04/05 06:20:39;;;;;;;6.47;2.63;;;4.80;72.30;;;;;;4802972;29;20174;-70
2021/04/05 06:23:35;;;;;;;8.00;2.83;;;4.90;72.20;;;;;;4772584;29;20391;-71
2021/04/05 06:26:30;;;;;;;13.45;3.35;;;5.10;72.30;;;;;;4802220;29;20063;-70
2021/04/05 06:29:28;;;;;;;7.75;2.60;;;5.20;72.30;;;;;;4798423;29;20062;-70
2021/04/05 06:32:05;;;;;;;10.90;3.15;;;5.30;71.50;;;;;;4801114;29;20057;-70
2021/04/05 06:34:35;;;;;;;9.32;3.90;;;5.40;71.20;;;;;;4820793;29;20050;-70
2021/04/05 06:37:22;;;;;;;10.20;3.30;;;5.50;71.40;;;;;;4838429;29;20114;-70
2021/04/05 06:39:52;;;;;;;10.48;3.55;;;5.50;72.50;;;;;;4840011;29;20042;-70
2021/04/05 06:42:29;;;;;;;12.23;6.53;;;5.50;72.50;;;;;;4835834;29;20114;-70
2021/04/05 06:45:29;;;;;;;9.73;4.03;;;5.60;72.50;;;;;;4841387;29;20041;-70
2021/04/05 06:48:15;;;;;;;8.45;3.05;;;5.80;72.80;;;;;;4822092;29;20053;-70
2021/04/05 06:51:05;;;;;;;9.63;3.47;;;5.80;73.90;;;;;;4833230;29;20493;-70
2021/04/05 06:54:08;;;;;;;7.50;3.40;;;5.90;74.70;;;;;;4835474;29;20483;-71
2021/04/05 06:57:23;;;;;;;8.52;3.00;;;6.00;75.60;;;;;;4753429;30;20708;-70
2021/04/05 06:59:52;;;;;;;11.95;3.65;;;6.00;76.80;;;;;;4757876;30;20058;-70
2021/04/05 07:02:52;;;;;;;32.15;11.15;;;6.10;76.50;;;;;;4751776;30;20066;-70
2021/04/05 07:05:33;;;;;;;12.52;5.88;;;6.30;76.60;;;;;;4765608;30;20047;-70
2021/04/05 07:08:11;;;;;;;12.55;5.07;;;6.40;76.00;;;;;;4764907;30;20072;-70
2021/04/05 07:10:46;;;;;;;11.60;4.13;;;6.50;75.90;;;;;;4764015;30;20188;-71
2021/04/05 07:13:31;;;;;;;9.80;4.45;;;6.60;75.40;;;;;;4750643;30;20130;-72
2021/04/05 07:16:29;;;;;;;6.85;2.83;;;6.80;74.30;;;;;;4731640;30;20047;-70
2021/04/05 07:19:34;;;;;;;7.60;2.83;;;6.90;72.40;;;;;;4738817;30;20075;-70
2021/04/05 07:22:43;;;;;;;6.68;2.65;;;7.10;72.10;;;;;;4763035;30;20063;-70
2021/04/05 07:25:39;;;;;;;6.18;2.65;;;7.20;70.30;;;;;;4749789;30;20052;-70
2021/04/05 07:28:22;;;;;;;6.13;2.08;;;7.40;69.80;;;;;;4739610;30;20064;-70
2021/04/05 07:31:26;;;;;;;4.93;2.53;;;7.60;67.80;;;;;;4745448;30;20047;-71
2021/04/05 07:34:17;;;;;;;8.85;2.47;;;7.80;65.90;;;;;;4805927;29;20057;-71
2021/04/05 07:37:18;;;;;;;3.17;1.35;;;7.90;65.50;;;;;;4826307;29;20141;-71
2021/04/05 07:40:17;;;;;;;74.80;5.75;;;8.10;61.30;;;;;;4813562;29;20107;-71
2021/04/05 07:42:55;;;;;;;4.68;1.50;;;8.10;59.90;;;;;;4817777;29;20062;-72
2021/04/05 07:45:21;;;;;;;4.57;1.55;;;8.30;59.80;;;;;;4830302;29;20464;-71
2021/04/05 07:48:14;;;;;;;4.30;1.48;;;8.50;58.00;;;;;;4831387;29;20054;-71
2021/04/05 07:50:47;;;;;;;;;;;8.70;57.40;;;;;;4818605;29;20053;-71
2021/04/05 07:53:36;;;;;;;4.67;1.93;;;8.80;56.10;;;;;;4830892;29;20242;-71
2021/04/05 07:56:18;;;;;;;5.60;1.67;;;8.90;56.10;;;;;;4836111;29;20490;-71
2021/04/05 07:59:17;;;;;;;3.70;1.10;;;9.10;55.90;;;;;;4826358;29;20046;-71
2021/04/05 08:02:21;;;;;;;3.38;0.90;;;9.30;55.30;;;;;;4829578;29;20049;-71
2021/04/05 08:05:30;;;;;;;3.72;1.10;;;9.40;54.50;;;;;;4833904;29;20050;-71
2021/04/05 08:08:23;;;;;;;3.13;0.80;;;9.50;53.30;;;;;;4834467;29;20061;-70
2021/04/05 08:11:02;;;;;;;3.33;1.42;;;9.60;53.70;;;;;;4819677;29;20050;-72
2021/04/05 08:13:56;;;;;;;6.82;1.00;;;9.80;52.70;;;;;;4839309;29;20395;-71
2021/04/05 08:16:38;;;;;;;3.20;0.93;;;10.00;51.50;;;;;;4841632;29;20470;-71
2021/04/05 08:19:12;;;;;;;4.38;1.02;;;10.00;51.70;;;;;;4837650;29;20734;-71
2021/04/05 08:22:08;;;;;;;2.83;0.60;;;10.10;51.40;;;;;;4837549;29;20050;-71
2021/04/05 08:24:49;;;;;;;4.97;0.93;;;10.30;49.80;;;;;;4830899;29;20045;-70
2021/04/05 08:27:23;;;;;;;3.60;0.88;;;10.30;50.50;;;;;;4839869;29;20379;-71
2021/04/05 08:30:01;;;;;;;2.75;0.85;;;10.50;50.50;;;;;;4836842;29;20053;-71
2021/04/05 08:32:34;;;;;;;2.70;0.88;;;10.60;50.00;;;;;;4822639;29;20061;-71
2021/04/05 08:35:38;;;;;;;6.43;1.05;;;10.60;49.00;;;;;;4833072;29;20375;-71
2021/04/05 08:38:17;;;;;;;3.35;0.68;;;10.80;49.20;;;;;;4832950;29;20050;-71
2021/04/05 08:41:02;;;;;;;3.47;0.88;;;10.50;48.50;;;;;;4822082;29;20046;-70
2021/04/05 08:43:59;;;;;;;3.65;0.70;;;10.70;49.90;;;;;;4831724;29;20046;-70
2021/04/05 08:46:30;;;;;;;3.28;0.70;;;11.00;49.30;;;;;;4811136;29;20550;-70
2021/04/05 08:48:59;;;;;;;3.22;1.05;;;11.00;47.90;;;;;;4835538;29;20490;-70
2021/04/05 08:51:28;;;;;;;5.55;1.05;;;11.10;48.20;;;;;;4818393;29;20045;-71
2021/04/05 08:53:57;;;;;;;3.80;1.02;;;11.10;47.10;;;;;;4824983;29;20050;-70
2021/04/05 08:56:36;;;;;;;13.50;3.50;;;11.10;48.70;;;;;;4831054;29;20110;-70
2021/04/05 08:59:07;;;;;;;2.20;0.80;;;11.20;47.30;;;;;;4834520;29;20038;-71
2021/04/05 09:01:48;;;;;;;5.05;1.05;;;11.20;47.40;;;;;;4837417;29;20058;-71
2021/04/05 09:04:22;;;;;;;2.97;0.60;;;11.40;47.20;;;;;;4831741;29;20041;-71
2021/04/05 09:06:55;;;;;;;2.33;1.08;;;11.40;47.10;;;;;;4836790;29;20077;-71
2021/04/05 09:09:23;;;;;;;3.42;1.05;;;11.50;46.40;;;;;;4819668;29;20502;-71
2021/04/05 09:11:50;;;;;;;5.07;0.90;;;11.50;46.40;;;;;;4835217;29;20065;-71
2021/04/05 09:14:18;;;;;;;3.40;0.90;;;11.70;46.60;;;;;;4836166;29;20140;-71
2021/04/05 09:17:21;;;;;;;2.00;0.73;;;11.90;46.50;;;;;;4823405;29;20274;-71
2021/04/05 09:19:50;;;;;;;;;;;11.90;46.80;;;;;;4816126;29;20490;-71
2021/04/05 09:22:58;;;;;;;3.10;0.93;;;12.10;46.20;;;;;;4803669;29;20360;-72
2021/04/05 09:26:09;;;;;;;3.90;0.95;;;12.20;45.60;;;;;;4802983;29;20049;-71
2021/04/05 09:29:09;;;;;;;3.35;1.05;;;12.10;45.70;;;;;;4771827;29;20070;-72
2021/04/05 09:31:36;;;;;;;4.18;2.20;;;;;;;;;;4774814;29;20046;-72
2021/04/05 09:34:25;;;;;;;1.70;0.85;;;12.20;44.60;;;;;;4778034;29;20054;-72
2021/04/05 09:37:23;;;;;;;6.07;0.55;;;12.40;44.30;;;;;;4795686;29;20067;-72
2021/04/05 09:40:05;;;;;;;5.80;0.75;;;12.50;43.70;;;;;;4795571;29;20051;-72
2021/04/05 09:42:58;;;;;;;3.83;0.95;;;12.60;44.20;;;;;;4787566;29;20051;-72
2021/04/05 09:45:28;;;;;;;2.85;0.75;;;;;;;;;;4785845;29;20609;-71
2021/04/05 09:47:54;;;;;;;4.10;0.60;;;12.60;41.80;;;;;;4804584;29;20054;-71
2021/04/05 09:50:39;;;;;;;3.63;0.90;;;12.60;42.80;;;;;;4785549;29;20069;-72
2021/04/05 09:53:28;;;;;;;3.00;0.80;;;12.50;42.50;;;;;;4786268;29;20065;-72
2021/04/05 09:56:04;;;;;;;11.70;1.13;;;12.60;43.00;;;;;;4781095;30;20155;-73
2021/04/05 09:58:40;;;;;;;3.95;0.70;;;12.60;42.50;;;;;;4777463;29;20066;-72
2021/04/05 10:01:14;;;;;;;9.00;3.08;;;12.70;42.70;;;;;;4798834;29;20062;-69
2021/04/05 10:03:46;;;;;;;4.55;1.70;;;12.90;42.60;;;;;;4768621;29;20055;-71
2021/04/05 10:06:15;;;;;;;6.45;1.25;;;12.20;73.60;;;;;;4832284;29;20069;-70
2021/04/05 10:08:43;;;;;;;3.83;0.85;;;11.70;71.60;;;;;;4826828;29;20066;-71
2021/04/05 10:11:12;;;;;;;2.58;0.70;;;11.80;55.30;;;;;;4829143;29;20061;-72
2021/04/05 10:13:52;;;;;;;3.58;0.70;;;12.20;47.60;;;;;;4835004;29;20121;-72
2021/04/05 10:16:23;;;;;;;4.65;0.77;;;12.50;46.80;;;;;;4829260;29;20081;-72
2021/04/05 10:19:10;;;;;;;1.98;0.80;;;12.80;46.00;;;;;;4834018;29;20409;-72
2021/04/05 10:21:43;;;;;;;3.35;0.52;;;13.00;43.40;;;;;;4830308;29;20053;-72
2021/04/05 10:24:20;;;;;;;5.78;1.00;;;13.20;42.60;;;;;;4848270;29;20081;-72
2021/04/05 10:26:50;;;;;;;2.42;0.50;;;13.50;44.70;;;;;;4836268;29;20542;-72
2021/04/05 10:29:18;;;;;;;2.88;0.70;;;13.50;41.40;;;;;;4824911;29;20057;-72
2021/04/05 10:31:46;;;;;;;3.50;0.93;;;13.30;41.40;;;;;;4833775;29;20054;-71
2021/04/05 10:34:14;;;;;;;3.10;0.50;;;13.50;42.30;;;;;;4833346;29;20072;-71
2021/04/05 10:36:45;;;;;;;2.42;0.60;;;13.70;42.10;;;;;;4843469;29;20061;-71
2021/04/05 10:39:13;;;;;;;3.97;0.73;;;13.70;41.80;;;;;;4831797;29;20054;-72
2021/04/05 10:41:48;;;;;;;7.20;0.73;;;13.80;40.30;;;;;;4827643;29;20038;-71
2021/04/05 10:44:16;;;;;;;1.35;0.60;;;13.70;39.90;;;;;;4835405;29;20525;-71
2021/04/05 10:46:48;;;;;;;5.43;0.93;;;14.00;40.30;;;;;;4813799;29;20370;-71
2021/04/05 10:49:29;;;;;;;3.22;1.00;;;14.20;39.10;;;;;;4963332;24;20053;31
2021/04/05 10:52:10;;;;;;;2.78;0.77;;;14.10;39.20;;;;;;4809979;29;20046;-73
2021/04/05 10:54:40;;;;;;;1.50;0.63;;;14.10;39.60;;;;;;4791821;29;20055;-73
2021/04/05 10:57:11;;;;;;;2.40;0.60;;;14.20;39.50;;;;;;4816517;29;20046;-72
2021/04/05 10:59:54;;;;;;;6.65;1.67;;;14.20;38.80;;;;;;4815884;29;20065;-72
2021/04/05 11:02:36;;;;;;;8.02;1.42;;;14.30;39.20;;;;;;4801986;29;20066;-72
2021/04/05 11:05:11;;;;;;;3.00;0.98;;;14.50;38.60;;;;;;4913645;24;20028;-69
2021/04/05 11:07:40;;;;;;;2.60;1.33;;;14.60;39.10;;;;;;4766266;29;20597;-70
2021/04/05 11:10:10;;;;;;;1.40;0.50;;;14.70;38.90;;;;;;4782578;29;20054;-69
2021/04/05 11:12:42;;;;;;;1.90;0.50;;;14.70;38.40;;;;;;4779840;29;20539;-69
2021/04/05 11:15:12;;;;;;;1.33;0.50;;;14.80;38.60;;;;;;4771360;29;20111;-69
2021/04/05 11:17:42;;;;;;;2.45;0.63;;;15.20;37.80;;;;;;4784258;29;20047;-69
2021/04/05 11:20:14;;;;;;;2.30;0.77;;;15.40;37.70;;;;;;4797783;29;20043;-70
2021/04/05 11:22:42;;;;;;;1.50;0.70;;;15.40;37.70;;;;;;4781824;29;20483;-71
2021/04/05 11:25:19;;;;;;;2.95;1.05;;;15.70;38.10;;;;;;4783000;29;20126;-70
2021/04/05 11:27:55;;;;;;;2.60;1.02;;;15.90;37.30;;;;;;4783676;29;20057;-70
2021/04/05 11:30:27;;;;;;;4.55;1.10;;;15.70;37.30;;;;;;4792791;29;20059;-70
2021/04/05 11:32:54;;;;;;;2.53;0.60;;;15.90;37.00;;;;;;4782338;29;20050;-70
2021/04/05 11:35:28;;;;;;;4.38;0.80;;;15.60;36.50;;;;;;4787525;29;20051;-70
2021/04/05 11:37:59;;;;;;;2.83;0.77;;;15.80;37.00;;;;;;4764523;30;20070;-70
2021/04/05 11:40:29;;;;;;;5.18;2.10;;;15.80;36.40;;;;;;4784584;29;20055;-69
2021/04/05 11:42:58;;;;;;;3.55;0.77;;;15.70;36.70;;;;;;4777282;29;20510;-70
2021/04/05 11:45:44;;;;;;;2.40;0.75;;;15.40;36.80;;;;;;4786162;29;20051;-69
2021/04/05 11:48:19;;;;;;;3.25;0.98;;;15.40;37.10;;;;;;4784182;29;20065;-70
2021/04/05 11:50:45;;;;;;;2.22;0.80;;;15.60;36.70;;;;;;4781210;29;20074;-70
2021/04/05 11:53:31;;;;;;;3.88;0.50;;;16.00;36.40;;;;;;4787869;29;20055;-70
2021/04/05 11:56:11;;;;;;;6.35;0.80;;;16.10;36.20;;;;;;4788940;29;20074;-70
2021/04/05 11:58:43;;;;;;;4.85;1.27;;;16.20;36.20;;;;;;4795035;29;20508;-70
2021/04/05 12:01:20;;;;;;;5.97;0.70;;;16.40;36.20;;;;;;4782968;29;20051;-70
2021/04/05 12:03:55;;;;;;;1.85;0.63;;;16.20;35.60;;;;;;4794043;29;20047;-70
2021/04/05 12:06:24;;;;;;;1.33;0.50;;;15.90;36.10;;;;;;4782081;29;20055;-70
2021/04/05 12:08:57;;;;;;;5.60;0.75;;;16.00;36.10;;;;;;4787788;29;20058;-70
2021/04/05 12:11:28;;;;;;;4.63;0.80;;;16.50;35.70;;;;;;4760404;30;20088;-70
2021/04/05 12:14:15;;;;;;;2.13;0.90;;;16.60;34.60;;;;;;4787360;29;20537;-70
2021/04/05 12:16:49;;;;;;;3.58;0.60;;;16.90;34.90;;;;;;4796110;29;20050;-70
2021/04/05 12:19:43;;;;;;;1.25;0.40;;;17.10;34.00;;;;;;4780650;29;20162;-70
2021/04/05 12:22:10;;;;;;;;;;;17.10;34.30;;;;;;4783661;29;20427;-70
2021/04/05 12:24:40;;;;;;;2.40;0.50;;;17.30;33.80;;;;;;4792834;29;19936;-70
2021/04/05 12:27:09;;;;;;;1.42;0.70;;;17.60;33.20;;;;;;4796235;29;20062;-70
2021/04/05 12:29:37;;;;;;;3.10;0.90;;;18.30;32.50;;;;;;4782799;29;20121;-70
2021/04/05 12:32:07;;;;;;;4.05;1.00;;;18.80;31.90;;;;;;4796071;29;20051;-70
2021/04/05 12:34:37;;;;;;;4.45;0.90;;;19.40;31.30;;;;;;4794222;29;20504;-70
2021/04/05 12:37:13;;;;;;;3.88;0.57;;;20.40;30.40;;;;;;4795044;29;20505;-70
2021/04/05 12:39:41;;;;;;;4.90;0.90;;;20.50;30.00;;;;;;4783806;29;20058;-70
2021/04/05 12:42:10;;;;;;;5.68;0.60;;;20.50;29.80;;;;;;4797369;29;20453;-70
2021/04/05 12:44:39;;;;;;;2.28;0.65;;;21.10;29.50;;;;;;4778531;29;20058;-70
2021/04/05 12:47:08;;;;;;;2.33;0.82;;;21.70;29.20;;;;;;4780000;29;20135;-70
2021/04/05 12:49:46;;;;;;;2.22;0.65;;;22.10;28.80;;;;;;4797706;29;20062;-70
2021/04/05 12:52:17;;;;;;;4.03;0.93;;;22.30;28.70;;;;;;4782615;29;20065;-71
2021/04/05 12:54:49;;;;;;;3.55;1.20;;;23.20;28.00;;;;;;4777990;29;20066;-70
2021/04/05 12:57:30;;;;;;;6.28;1.27;;;23.50;27.80;;;;;;4786910;29;20053;-70
2021/04/05 12:59:57;;;;;;;5.53;1.20;;;23.30;27.50;;;;;;4784273;29;20047;-70
2021/04/05 13:02:30;;;;;;;2.20;0.82;;;23.10;27.60;;;;;;4796826;29;20126;-70
2021/04/05 13:05:00;;;;;;;2.33;0.70;;;21.80;28.50;;;;;;4786562;29;20152;-70
2021/04/05 13:07:38;;;;;;;5.05;1.13;;;21.20;29.20;;;;;;4785372;29;20046;-70
2021/04/05 13:10:14;;;;;;;7.45;3.10;;;22.00;28.80;;;;;;4792625;29;20452;-71
2021/04/05 13:12:45;;;;;;;4.57;1.00;;;22.40;28.10;;;;;;4796023;29;20058;-70
2021/04/05 13:15:17;;;;;;;4.22;1.17;;;21.20;29.00;;;;;;4801629;29;20130;-71
2021/04/05 13:18:14;;;;;;;3.05;0.93;;;21.30;28.80;;;;;;4788580;29;20047;-71
2021/04/05 13:20:47;;;;;;;3.75;0.70;;;22.30;28.40;;;;;;4779421;29;20146;-71
2021/04/05 13:23:20;;;;;;;1.10;0.63;;;21.80;28.50;;;;;;4795101;29;20061;-70
2021/04/05 13:26:11;;;;;;;2.95;0.73;;;22.40;28.20;;;;;;4795564;29;20563;-71
2021/04/05 13:28:41;;;;;;;3.65;0.95;;;21.80;28.40;;;;;;4760444;29;20059;-70
2021/04/05 13:31:09;;;;;;;4.70;0.80;;;21.80;28.80;;;;;;4795127;29;20055;-70
2021/04/05 13:33:38;;;;;;;3.60;0.60;;;21.60;28.90;;;;;;4796636;29;20401;-71
2021/04/05 13:36:08;;;;;;;3.15;0.63;;;22.20;28.70;;;;;;4781513;29;20149;-71